sensor_id;sensor_type;location;lat;lon;timestamp;P1;durP1;ratioP1;P2;durP2;ratioP2
19727;SDS011;10015;52.530;13.390;2023-10-08T00:02:45;3.30;;;1.03;;
19727;SDS011;10015;52.530;13.390;2023-10-08T00:05:12;3.23;;;0.90;;
19727;SDS011;10015;52.530;13.390;2023-10-08T00:07:41;2.23;;;0.87;;
19727;SDS011;10015;52.530;13.390;2023-10-08T00:10:08;3.83;;;1.07;;
19727;SDS011;10015;52.530;13.390;2023-10-08T00:12:34;4.10;;;1.00;;
19727;SDS011;10015;52.530;13.390;2023-10-08T00:15:00;5.10;;;1.07;;
19727;SDS011;10015;52.530;13.390;2023-10-08T00:17:32;2.87;;;1.10;;
19727;SDS011;10015;52.530;13.390;2023-10-08T00:19:58;3.60;;;1.00;;
19727;SDS011;10015;52.530;13.390;2023-10-08T00:22:26;3.60;;;1.10;;
19727;SDS011;10015;52.530;13.390;2023-10-08T00:24:52;2.93;;;1.13;;
19727;SDS011;10015;52.530;13.390;2023-10-08T00:27:23;3.00;;;0.90;;
19727;SDS011;10015;52.530;13.390;2023-10-08T00:29:49;4.30;;;1.33;;
19727;SDS011;10015;52.530;13.390;2023-10-08T00:32:15;3.90;;;1.27;;
19727;SDS011;10015;52.530;13.390;2023-10-08T00:34:42;5.47;;;1.50;;
19727;SDS011;10015;52.530;13.390;2023-10-08T00:37:09;4.87;;;1.17;;
19727;SDS011;10015;52.530;13.390;2023-10-08T00:39:36;5.33;;;1.30;;
19727;SDS011;10015;52.530;13.390;2023-10-08T00:42:03;3.40;;;1.10;;
19727;SDS011;10015;52.530;13.390;2023-10-08T00:44:32;2.27;;;1.00;;
19727;SDS011;10015;52.530;13.390;2023-10-08T00:47:28;6.70;;;1.10;;
19727;SDS011;10015;52.530;13.390;2023-10-08T00:49:56;3.70;;;1.10;;
19727;SDS011;10015;52.530;13.390;2023-10-08T00:52:34;6.07;;;1.30;;
19727;SDS011;10015;52.530;13.390;2023-10-08T00:55:08;3.47;;;1.10;;
19727;SDS011;10015;52.530;13.390;2023-10-08T00:57:35;3.30;;;1.30;;
19727;SDS011;10015;52.530;13.390;2023-10-08T01:00:03;4.43;;;1.10;;
19727;SDS011;10015;52.530;13.390;2023-10-08T01:02:32;6.80;;;1.47;;
19727;SDS011;10015;52.530;13.390;2023-10-08T01:05:11;5.30;;;1.37;;
19727;SDS011;10015;52.530;13.390;2023-10-08T01:07:39;4.03;;;1.23;;
19727;SDS011;10015;52.530;13.390;2023-10-08T01:10:10;5.47;;;1.80;;
19727;SDS011;10015;52.530;13.390;2023-10-08T01:12:39;7.50;;;1.27;;
19727;SDS011;10015;52.530;13.390;2023-10-08T01:15:24;3.03;;;1.10;;
19727;SDS011;10015;52.530;13.390;2023-10-08T01:17:54;3.43;;;1.20;;
19727;SDS011;10015;52.530;13.390;2023-10-08T01:20:26;5.00;;;1.37;;
19727;SDS011;10015;52.530;13.390;2023-10-08T01:23:14;4.87;;;1.60;;
19727;SDS011;10015;52.530;13.390;2023-10-08T01:25:46;4.70;;;1.50;;
19727;SDS011;10015;52.530;13.390;2023-10-08T01:28:36;4.53;;;1.40;;
19727;SDS011;10015;52.530;13.390;2023-10-08T01:31:02;3.53;;;1.20;;
19727;SDS011;10015;52.530;13.390;2023-10-08T01:33:30;3.53;;;1.40;;
19727;SDS011;10015;52.530;13.390;2023-10-08T01:35:57;4.17;;;1.27;;
19727;SDS011;10015;52.530;13.390;2023-10-08T01:38:29;4.30;;;1.43;;
19727;SDS011;10015;52.530;13.390;2023-10-08T01:40:58;2.87;;;1.40;;
19727;SDS011;10015;52.530;13.390;2023-10-08T01:43:29;4.27;;;1.17;;
19727;SDS011;10015;52.530;13.390;2023-10-08T01:45:57;7.03;;;1.37;;
19727;SDS011;10015;52.530;13.390;2023-10-08T01:48:23;4.63;;;1.30;;
19727;SDS011;10015;52.530;13.390;2023-10-08T01:51:02;5.87;;;1.40;;
19727;SDS011;10015;52.530;13.390;2023-10-08T01:53:34;3.07;;;1.07;;
19727;SDS011;10015;52.530;13.390;2023-10-08T01:56:01;5.43;;;1.30;;
19727;SDS011;10015;52.530;13.390;2023-10-08T01:58:29;3.13;;;1.27;;
19727;SDS011;10015;52.530;13.390;2023-10-08T02:00:56;5.97;;;1.87;;
19727;SDS011;10015;52.530;13.390;2023-10-08T02:03:26;7.13;;;1.40;;
19727;SDS011;10015;52.530;13.390;2023-10-08T02:05:55;4.50;;;1.33;;
19727;SDS011;10015;52.530;13.390;2023-10-08T02:08:24;3.77;;;1.57;;
19727;SDS011;10015;52.530;13.390;2023-10-08T02:10:52;8.13;;;1.40;;
19727;SDS011;10015;52.530;13.390;2023-10-08T02:13:18;4.27;;;1.53;;
19727;SDS011;10015;52.530;13.390;2023-10-08T02:15:45;7.17;;;1.57;;
19727;SDS011;10015;52.530;13.390;2023-10-08T02:18:17;6.53;;;1.53;;
19727;SDS011;10015;52.530;13.390;2023-10-08T02:20:48;8.10;;;1.80;;
19727;SDS011;10015;52.530;13.390;2023-10-08T02:23:14;5.13;;;1.60;;
19727;SDS011;10015;52.530;13.390;2023-10-08T02:25:40;5.73;;;1.70;;
19727;SDS011;10015;52.530;13.390;2023-10-08T02:28:08;7.30;;;1.80;;
19727;SDS011;10015;52.530;13.390;2023-10-08T02:30:35;6.53;;;1.67;;
19727;SDS011;10015;52.530;13.390;2023-10-08T02:33:02;7.23;;;1.93;;
19727;SDS011;10015;52.530;13.390;2023-10-08T02:35:28;6.50;;;1.87;;
19727;SDS011;10015;52.530;13.390;2023-10-08T02:37:54;7.97;;;2.30;;
19727;SDS011;10015;52.530;13.390;2023-10-08T02:40:22;4.17;;;2.00;;
19727;SDS011;10015;52.530;13.390;2023-10-08T02:42:53;6.77;;;2.20;;
19727;SDS011;10015;52.530;13.390;2023-10-08T02:45:27;9.20;;;2.23;;
19727;SDS011;10015;52.530;13.390;2023-10-08T02:47:54;6.27;;;2.60;;
19727;SDS011;10015;52.530;13.390;2023-10-08T02:50:20;8.17;;;2.37;;
19727;SDS011;10015;52.530;13.390;2023-10-08T02:52:52;7.50;;;2.30;;
19727;SDS011;10015;52.530;13.390;2023-10-08T02:55:19;6.83;;;2.33;;
19727;SDS011;10015;52.530;13.390;2023-10-08T02:58:00;9.37;;;2.37;;
19727;SDS011;10015;52.530;13.390;2023-10-08T03:00:28;6.20;;;2.50;;
19727;SDS011;10015;52.530;13.390;2023-10-08T03:03:00;4.67;;;2.63;;
19727;SDS011;10015;52.530;13.390;2023-10-08T03:05:27;6.73;;;2.27;;
19727;SDS011;10015;52.530;13.390;2023-10-08T03:08:02;6.07;;;2.10;;
19727;SDS011;10015;52.530;13.390;2023-10-08T03:10:36;8.33;;;2.37;;
19727;SDS011;10015;52.530;13.390;2023-10-08T03:13:03;7.87;;;1.80;;
19727;SDS011;10015;52.530;13.390;2023-10-08T03:15:35;8.33;;;2.20;;
19727;SDS011;10015;52.530;13.390;2023-10-08T03:18:15;6.23;;;2.10;;
19727;SDS011;10015;52.530;13.390;2023-10-08T03:20:41;5.13;;;2.03;;
19727;SDS011;10015;52.530;13.390;2023-10-08T03:23:21;7.53;;;2.20;;
19727;SDS011;10015;52.530;13.390;2023-10-08T03:26:00;7.17;;;2.27;;
19727;SDS011;10015;52.530;13.390;2023-10-08T03:28:30;9.00;;;2.23;;
19727;SDS011;10015;52.530;13.390;2023-10-08T03:31:00;9.50;;;2.43;;
19727;SDS011;10015;52.530;13.390;2023-10-08T03:33:34;6.37;;;2.10;;
19727;SDS011;10015;52.530;13.390;2023-10-08T03:36:03;7.93;;;2.10;;
19727;SDS011;10015;52.530;13.390;2023-10-08T03:38:50;3.70;;;2.10;;
19727;SDS011;10015;52.530;13.390;2023-10-08T03:41:17;8.97;;;2.60;;
19727;SDS011;10015;52.530;13.390;2023-10-08T03:43:52;5.13;;;2.07;;
19727;SDS011;10015;52.530;13.390;2023-10-08T03:46:21;9.33;;;2.13;;
19727;SDS011;10015;52.530;13.390;2023-10-08T03:48:50;7.87;;;2.57;;
19727;SDS011;10015;52.530;13.390;2023-10-08T03:51:21;5.70;;;2.20;;
19727;SDS011;10015;52.530;13.390;2023-10-08T03:53:47;8.17;;;2.47;;
19727;SDS011;10015;52.530;13.390;2023-10-08T03:56:32;10.97;;;2.30;;
19727;SDS011;10015;52.530;13.390;2023-10-08T03:59:03;7.70;;;2.23;;
19727;SDS011;10015;52.530;13.390;2023-10-08T04:01:39;7.97;;;2.23;;
19727;SDS011;10015;52.530;13.390;2023-10-08T04:04:08;7.17;;;2.27;;
19727;SDS011;10015;52.530;13.390;2023-10-08T04:06:39;9.73;;;2.73;;
19727;SDS011;10015;52.530;13.390;2023-10-08T04:09:16;8.10;;;2.80;;
19727;SDS011;10015;52.530;13.390;2023-10-08T04:11:49;8.90;;;2.40;;
19727;SDS011;10015;52.530;13.390;2023-10-08T04:14:24;9.37;;;2.30;;
19727;SDS011;10015;52.530;13.390;2023-10-08T04:16:50;9.40;;;2.40;;
19727;SDS011;10015;52.530;13.390;2023-10-08T04:19:19;11.00;;;2.73;;
19727;SDS011;10015;52.530;13.390;2023-10-08T04:21:50;8.50;;;2.37;;
19727;SDS011;10015;52.530;13.390;2023-10-08T04:24:23;7.03;;;2.40;;
19727;SDS011;10015;52.530;13.390;2023-10-08T04:27:00;9.07;;;2.50;;
19727;SDS011;10015;52.530;13.390;2023-10-08T04:29:31;6.40;;;2.40;;
19727;SDS011;10015;52.530;13.390;2023-10-08T04:32:01;6.97;;;2.20;;
19727;SDS011;10015;52.530;13.390;2023-10-08T04:34:33;8.30;;;2.33;;
19727;SDS011;10015;52.530;13.390;2023-10-08T04:37:00;5.70;;;2.00;;
19727;SDS011;10015;52.530;13.390;2023-10-08T04:39:38;8.20;;;2.70;;
19727;SDS011;10015;52.530;13.390;2023-10-08T04:42:06;6.57;;;2.30;;
19727;SDS011;10015;52.530;13.390;2023-10-08T04:44:39;6.63;;;2.07;;
19727;SDS011;10015;52.530;13.390;2023-10-08T04:47:08;7.90;;;2.17;;
19727;SDS011;10015;52.530;13.390;2023-10-08T04:49:35;5.20;;;2.13;;
19727;SDS011;10015;52.530;13.390;2023-10-08T04:52:10;9.93;;;2.37;;
19727;SDS011;10015;52.530;13.390;2023-10-08T04:54:40;9.87;;;2.00;;
19727;SDS011;10015;52.530;13.390;2023-10-08T04:57:16;5.47;;;2.00;;
19727;SDS011;10015;52.530;13.390;2023-10-08T04:59:43;6.73;;;1.87;;
19727;SDS011;10015;52.530;13.390;2023-10-08T05:02:11;7.97;;;2.10;;
19727;SDS011;10015;52.530;13.390;2023-10-08T05:04:39;7.27;;;1.93;;
19727;SDS011;10015;52.530;13.390;2023-10-08T05:07:24;7.80;;;2.37;;
19727;SDS011;10015;52.530;13.390;2023-10-08T05:09:52;6.07;;;1.70;;
19727;SDS011;10015;52.530;13.390;2023-10-08T05:12:56;6.97;;;2.07;;
19727;SDS011;10015;52.530;13.390;2023-10-08T05:15:29;4.70;;;1.83;;
19727;SDS011;10015;52.530;13.390;2023-10-08T05:17:59;6.50;;;2.27;;
19727;SDS011;10015;52.530;13.390;2023-10-08T05:20:38;3.83;;;1.87;;
19727;SDS011;10015;52.530;13.390;2023-10-08T05:23:14;5.10;;;1.90;;
19727;SDS011;10015;52.530;13.390;2023-10-08T05:25:51;8.03;;;2.20;;
19727;SDS011;10015;52.530;13.390;2023-10-08T05:28:39;5.30;;;2.20;;
19727;SDS011;10015;52.530;13.390;2023-10-08T05:31:23;7.30;;;2.10;;
19727;SDS011;10015;52.530;13.390;2023-10-08T05:34:15;11.73;;;2.30;;
19727;SDS011;10015;52.530;13.390;2023-10-08T05:36:48;8.23;;;2.50;;
19727;SDS011;10015;52.530;13.390;2023-10-08T05:39:26;5.60;;;2.00;;
19727;SDS011;10015;52.530;13.390;2023-10-08T05:42:08;9.60;;;2.30;;
19727;SDS011;10015;52.530;13.390;2023-10-08T05:44:56;7.93;;;2.00;;
19727;SDS011;10015;52.530;13.390;2023-10-08T05:47:34;6.07;;;2.40;;
19727;SDS011;10015;52.530;13.390;2023-10-08T05:50:02;5.77;;;2.03;;
19727;SDS011;10015;52.530;13.390;2023-10-08T05:52:43;6.40;;;1.90;;
19727;SDS011;10015;52.530;13.390;2023-10-08T05:55:30;7.27;;;2.40;;
19727;SDS011;10015;52.530;13.390;2023-10-08T05:58:04;4.83;;;2.03;;
19727;SDS011;10015;52.530;13.390;2023-10-08T06:00:41;5.03;;;2.10;;
19727;SDS011;10015;52.530;13.390;2023-10-08T06:03:19;7.43;;;2.30;;
19727;SDS011;10015;52.530;13.390;2023-10-08T06:06:04;6.63;;;2.13;;
19727;SDS011;10015;52.530;13.390;2023-10-08T06:08:41;6.47;;;2.03;;
19727;SDS011;10015;52.530;13.390;2023-10-08T06:11:26;6.20;;;1.90;;
19727;SDS011;10015;52.530;13.390;2023-10-08T06:14:21;6.20;;;2.07;;
19727;SDS011;10015;52.530;13.390;2023-10-08T06:17:07;6.30;;;2.27;;
19727;SDS011;10015;52.530;13.390;2023-10-08T06:19:52;6.57;;;2.00;;
19727;SDS011;10015;52.530;13.390;2023-10-08T06:22:18;7.00;;;2.47;;
19727;SDS011;10015;52.530;13.390;2023-10-08T06:24:45;9.03;;;2.33;;
19727;SDS011;10015;52.530;13.390;2023-10-08T06:27:11;6.03;;;1.97;;
19727;SDS011;10015;52.530;13.390;2023-10-08T06:29:42;4.37;;;2.03;;
19727;SDS011;10015;52.530;13.390;2023-10-08T06:32:10;5.20;;;1.93;;
19727;SDS011;10015;52.530;13.390;2023-10-08T06:34:37;10.23;;;1.80;;
19727;SDS011;10015;52.530;13.390;2023-10-08T06:37:05;6.73;;;1.70;;
19727;SDS011;10015;52.530;13.390;2023-10-08T06:39:33;6.93;;;2.40;;
19727;SDS011;10015;52.530;13.390;2023-10-08T06:42:15;5.60;;;2.03;;
19727;SDS011;10015;52.530;13.390;2023-10-08T06:44:42;5.63;;;1.90;;
19727;SDS011;10015;52.530;13.390;2023-10-08T06:47:12;4.33;;;1.67;;
19727;SDS011;10015;52.530;13.390;2023-10-08T06:49:41;6.07;;;2.10;;
19727;SDS011;10015;52.530;13.390;2023-10-08T06:52:09;5.97;;;2.10;;
19727;SDS011;10015;52.530;13.390;2023-10-08T06:54:38;9.00;;;2.47;;
19727;SDS011;10015;52.530;13.390;2023-10-08T06:57:03;5.10;;;1.87;;
19727;SDS011;10015;52.530;13.390;2023-10-08T06:59:30;7.57;;;1.60;;
19727;SDS011;10015;52.530;13.390;2023-10-08T07:01:56;3.43;;;1.70;;
19727;SDS011;10015;52.530;13.390;2023-10-08T07:04:24;5.77;;;2.00;;
19727;SDS011;10015;52.530;13.390;2023-10-08T07:06:50;4.70;;;1.60;;
19727;SDS011;10015;52.530;13.390;2023-10-08T07:09:16;5.83;;;1.80;;
19727;SDS011;10015;52.530;13.390;2023-10-08T07:12:08;5.53;;;2.00;;
19727;SDS011;10015;52.530;13.390;2023-10-08T07:14:39;5.17;;;1.50;;
19727;SDS011;10015;52.530;13.390;2023-10-08T07:17:07;7.50;;;2.03;;
19727;SDS011;10015;52.530;13.390;2023-10-08T07:19:33;4.20;;;1.30;;
19727;SDS011;10015;52.530;13.390;2023-10-08T07:22:07;3.03;;;1.40;;
19727;SDS011;10015;52.530;13.390;2023-10-08T07:24:43;3.87;;;1.23;;
19727;SDS011;10015;52.530;13.390;2023-10-08T07:27:11;3.83;;;1.20;;
19727;SDS011;10015;52.530;13.390;2023-10-08T07:29:37;4.13;;;1.50;;
19727;SDS011;10015;52.530;13.390;2023-10-08T07:32:03;4.13;;;1.57;;
19727;SDS011;10015;52.530;13.390;2023-10-08T07:34:39;3.63;;;1.30;;
19727;SDS011;10015;52.530;13.390;2023-10-08T07:37:06;3.93;;;1.10;;
19727;SDS011;10015;52.530;13.390;2023-10-08T07:39:32;5.03;;;1.27;;
19727;SDS011;10015;52.530;13.390;2023-10-08T07:41:58;7.03;;;1.90;;
19727;SDS011;10015;52.530;13.390;2023-10-08T07:44:25;3.63;;;1.20;;
19727;SDS011;10015;52.530;13.390;2023-10-08T07:46:56;2.63;;;1.20;;
19727;SDS011;10015;52.530;13.390;2023-10-08T07:49:23;3.67;;;1.10;;
19727;SDS011;10015;52.530;13.390;2023-10-08T07:51:51;3.17;;;1.00;;
19727;SDS011;10015;52.530;13.390;2023-10-08T07:54:18;2.73;;;1.07;;
19727;SDS011;10015;52.530;13.390;2023-10-08T07:56:46;2.80;;;1.13;;
19727;SDS011;10015;52.530;13.390;2023-10-08T07:59:13;3.10;;;1.00;;
19727;SDS011;10015;52.530;13.390;2023-10-08T08:01:41;3.47;;;1.20;;
19727;SDS011;10015;52.530;13.390;2023-10-08T08:04:12;6.43;;;1.53;;
19727;SDS011;10015;52.530;13.390;2023-10-08T08:06:48;2.43;;;1.00;;
19727;SDS011;10015;52.530;13.390;2023-10-08T08:09:18;3.17;;;1.17;;
19727;SDS011;10015;52.530;13.390;2023-10-08T08:11:48;3.30;;;1.10;;
19727;SDS011;10015;52.530;13.390;2023-10-08T08:14:15;6.10;;;1.30;;
19727;SDS011;10015;52.530;13.390;2023-10-08T08:16:50;1.98;;;0.90;;
19727;SDS011;10015;52.530;13.390;2023-10-08T08:19:16;3.13;;;1.07;;
19727;SDS011;10015;52.530;13.390;2023-10-08T08:21:49;4.20;;;1.40;;
19727;SDS011;10015;52.530;13.390;2023-10-08T08:24:17;2.10;;;0.97;;
19727;SDS011;10015;52.530;13.390;2023-10-08T08:26:57;3.15;;;0.80;;
19727;SDS011;10015;52.530;13.390;2023-10-08T08:29:50;2.67;;;0.80;;
19727;SDS011;10015;52.530;13.390;2023-10-08T08:32:21;3.63;;;0.90;;
19727;SDS011;10015;52.530;13.390;2023-10-08T08:34:47;2.88;;;1.02;;
19727;SDS011;10015;52.530;13.390;2023-10-08T08:37:16;1.83;;;0.82;;
19727;SDS011;10015;52.530;13.390;2023-10-08T08:39:42;2.38;;;0.80;;
19727;SDS011;10015;52.530;13.390;2023-10-08T08:42:08;1.98;;;0.85;;
19727;SDS011;10015;52.530;13.390;2023-10-08T08:44:36;2.78;;;1.00;;
19727;SDS011;10015;52.530;13.390;2023-10-08T08:47:11;1.35;;;0.73;;
19727;SDS011;10015;52.530;13.390;2023-10-08T08:49:43;1.70;;;0.80;;
19727;SDS011;10015;52.530;13.390;2023-10-08T08:52:13;1.10;;;0.80;;
19727;SDS011;10015;52.530;13.390;2023-10-08T08:54:39;2.40;;;0.77;;
19727;SDS011;10015;52.530;13.390;2023-10-08T08:57:07;2.87;;;0.83;;
19727;SDS011;10015;52.530;13.390;2023-10-08T08:59:53;2.72;;;0.52;;
19727;SDS011;10015;52.530;13.390;2023-10-08T09:02:20;2.50;;;0.95;;
19727;SDS011;10015;52.530;13.390;2023-10-08T09:04:48;0.87;;;0.60;;
19727;SDS011;10015;52.530;13.390;2023-10-08T09:07:19;2.47;;;0.73;;
19727;SDS011;10015;52.530;13.390;2023-10-08T09:09:46;2.20;;;0.65;;
19727;SDS011;10015;52.530;13.390;2023-10-08T09:12:16;1.73;;;0.60;;
19727;SDS011;10015;52.530;13.390;2023-10-08T09:14:42;1.40;;;0.70;;
19727;SDS011;10015;52.530;13.390;2023-10-08T09:17:11;1.07;;;0.50;;
19727;SDS011;10015;52.530;13.390;2023-10-08T09:19:40;0.70;;;0.70;;
19727;SDS011;10015;52.530;13.390;2023-10-08T09:22:10;4.67;;;2.53;;
19727;SDS011;10015;52.530;13.390;2023-10-08T09:24:38;10.55;;;6.05;;
19727;SDS011;10015;52.530;13.390;2023-10-08T09:27:06;1.75;;;1.00;;
19727;SDS011;10015;52.530;13.390;2023-10-08T09:29:34;2.45;;;0.80;;
19727;SDS011;10015;52.530;13.390;2023-10-08T09:32:12;1.85;;;0.65;;
19727;SDS011;10015;52.530;13.390;2023-10-08T09:34:39;2.25;;;0.75;;
19727;SDS011;10015;52.530;13.390;2023-10-08T09:37:05;1.80;;;0.70;;
19727;SDS011;10015;52.530;13.390;2023-10-08T09:39:33;2.17;;;0.60;;
19727;SDS011;10015;52.530;13.390;2023-10-08T09:42:00;1.08;;;0.50;;
19727;SDS011;10015;52.530;13.390;2023-10-08T09:44:31;2.40;;;0.70;;
19727;SDS011;10015;52.530;13.390;2023-10-08T09:52:09;13.45;;;8.15;;
19727;SDS011;10015;52.530;13.390;2023-10-08T09:57:35;2.28;;;0.80;;
19727;SDS011;10015;52.530;13.390;2023-10-08T10:00:06;2.93;;;0.70;;
19727;SDS011;10015;52.530;13.390;2023-10-08T10:02:43;1.03;;;0.60;;
19727;SDS011;10015;52.530;13.390;2023-10-08T10:05:10;1.03;;;0.60;;
19727;SDS011;10015;52.530;13.390;2023-10-08T10:07:37;0.90;;;0.70;;
19727;SDS011;10015;52.530;13.390;2023-10-08T10:13:04;7.60;;;4.20;;
19727;SDS011;10015;52.530;13.390;2023-10-08T10:15:33;2.47;;;1.20;;
19727;SDS011;10015;52.530;13.390;2023-10-08T10:18:14;0.30;;;0.30;;
19727;SDS011;10015;52.530;13.390;2023-10-08T10:20:44;1.50;;;0.73;;
19727;SDS011;10015;52.530;13.390;2023-10-08T10:25:59;2.83;;;0.63;;
19727;SDS011;10015;52.530;13.390;2023-10-08T10:28:27;1.23;;;0.77;;
19727;SDS011;10015;52.530;13.390;2023-10-08T10:30:54;3.92;;;0.63;;
19727;SDS011;10015;52.530;13.390;2023-10-08T10:33:29;1.55;;;0.77;;
19727;SDS011;10015;52.530;13.390;2023-10-08T10:35:56;2.60;;;0.50;;
19727;SDS011;10015;52.530;13.390;2023-10-08T10:38:25;3.33;;;0.75;;
19727;SDS011;10015;52.530;13.390;2023-10-08T10:40:57;1.73;;;0.80;;
19727;SDS011;10015;52.530;13.390;2023-10-08T10:43:24;1.55;;;0.70;;
19727;SDS011;10015;52.530;13.390;2023-10-08T10:45:59;1.00;;;0.57;;
19727;SDS011;10015;52.530;13.390;2023-10-08T10:48:46;2.72;;;0.60;;
19727;SDS011;10015;52.530;13.390;2023-10-08T10:51:28;1.10;;;0.70;;
19727;SDS011;10015;52.530;13.390;2023-10-08T10:53:54;6.00;;;3.10;;
19727;SDS011;10015;52.530;13.390;2023-10-08T10:56:27;1.67;;;0.80;;
19727;SDS011;10015;52.530;13.390;2023-10-08T10:58:59;2.15;;;0.85;;
19727;SDS011;10015;52.530;13.390;2023-10-08T11:01:27;2.03;;;0.60;;
19727;SDS011;10015;52.530;13.390;2023-10-08T11:03:57;1.17;;;0.60;;
19727;SDS011;10015;52.530;13.390;2023-10-08T11:06:23;2.00;;;0.60;;
19727;SDS011;10015;52.530;13.390;2023-10-08T11:08:51;1.23;;;0.60;;
19727;SDS011;10015;52.530;13.390;2023-10-08T11:11:18;1.20;;;0.60;;
19727;SDS011;10015;52.530;13.390;2023-10-08T11:13:45;0.70;;;0.70;;
19727;SDS011;10015;52.530;13.390;2023-10-08T11:16:22;6.00;;;0.75;;
19727;SDS011;10015;52.530;13.390;2023-10-08T11:18:50;1.50;;;0.70;;
19727;SDS011;10015;52.530;13.390;2023-10-08T11:21:23;1.35;;;0.75;;
19727;SDS011;10015;52.530;13.390;2023-10-08T11:23:50;1.25;;;0.60;;
19727;SDS011;10015;52.530;13.390;2023-10-08T11:26:26;1.92;;;0.60;;
19727;SDS011;10015;52.530;13.390;2023-10-08T11:29:07;3.78;;;0.50;;
19727;SDS011;10015;52.530;13.390;2023-10-08T11:31:43;3.13;;;0.70;;
19727;SDS011;10015;52.530;13.390;2023-10-08T11:34:12;4.05;;;2.67;;
19727;SDS011;10015;52.530;13.390;2023-10-08T11:36:41;9.63;;;4.47;;
19727;SDS011;10015;52.530;13.390;2023-10-08T11:39:18;3.67;;;1.20;;
19727;SDS011;10015;52.530;13.390;2023-10-08T11:42:00;2.35;;;0.80;;
19727;SDS011;10015;52.530;13.390;2023-10-08T11:44:33;1.77;;;0.68;;
19727;SDS011;10015;52.530;13.390;2023-10-08T11:47:02;2.88;;;0.68;;
19727;SDS011;10015;52.530;13.390;2023-10-08T11:49:47;1.42;;;0.70;;
19727;SDS011;10015;52.530;13.390;2023-10-08T11:52:19;1.48;;;0.80;;
19727;SDS011;10015;52.530;13.390;2023-10-08T11:55:07;1.48;;;0.73;;
19727;SDS011;10015;52.530;13.390;2023-10-08T11:57:39;2.92;;;1.90;;
19727;SDS011;10015;52.530;13.390;2023-10-08T12:00:13;1.17;;;0.82;;
19727;SDS011;10015;52.530;13.390;2023-10-08T12:02:50;2.70;;;1.55;;
19727;SDS011;10015;52.530;13.390;2023-10-08T12:05:20;0.98;;;0.70;;
19727;SDS011;10015;52.530;13.390;2023-10-08T12:07:50;1.15;;;0.52;;
19727;SDS011;10015;52.530;13.390;2023-10-08T12:10:19;2.05;;;0.70;;
19727;SDS011;10015;52.530;13.390;2023-10-08T12:12:49;1.35;;;0.80;;
19727;SDS011;10015;52.530;13.390;2023-10-08T12:15:20;1.88;;;0.70;;
19727;SDS011;10015;52.530;13.390;2023-10-08T12:17:48;3.33;;;0.52;;
19727;SDS011;10015;52.530;13.390;2023-10-08T12:20:36;1.15;;;0.60;;
19727;SDS011;10015;52.530;13.390;2023-10-08T12:23:04;2.53;;;0.75;;
19727;SDS011;10015;52.530;13.390;2023-10-08T12:25:33;1.90;;;0.82;;
19727;SDS011;10015;52.530;13.390;2023-10-08T12:27:59;2.33;;;0.70;;
19727;SDS011;10015;52.530;13.390;2023-10-08T12:30:32;1.00;;;0.60;;
19727;SDS011;10015;52.530;13.390;2023-10-08T12:33:07;2.20;;;0.73;;
19727;SDS011;10015;52.530;13.390;2023-10-08T12:35:41;3.63;;;0.82;;
19727;SDS011;10015;52.530;13.390;2023-10-08T12:38:08;1.95;;;0.75;;
19727;SDS011;10015;52.530;13.390;2023-10-08T12:40:35;2.10;;;0.85;;
19727;SDS011;10015;52.530;13.390;2023-10-08T12:43:13;1.92;;;1.20;;
19727;SDS011;10015;52.530;13.390;2023-10-08T12:45:47;2.20;;;1.00;;
19727;SDS011;10015;52.530;13.390;2023-10-08T12:48:18;1.25;;;0.80;;
19727;SDS011;10015;52.530;13.390;2023-10-08T12:50:44;2.38;;;0.50;;
19727;SDS011;10015;52.530;13.390;2023-10-08T12:53:11;1.00;;;0.60;;
19727;SDS011;10015;52.530;13.390;2023-10-08T12:55:37;1.60;;;1.05;;
19727;SDS011;10015;52.530;13.390;2023-10-08T12:58:06;2.08;;;0.93;;
19727;SDS011;10015;52.530;13.390;2023-10-08T13:00:36;2.45;;;0.80;;
19727;SDS011;10015;52.530;13.390;2023-10-08T13:03:14;0.88;;;0.80;;
19727;SDS011;10015;52.530;13.390;2023-10-08T13:05:41;1.00;;;0.70;;
19727;SDS011;10015;52.530;13.390;2023-10-08T13:08:12;1.65;;;0.60;;
19727;SDS011;10015;52.530;13.390;2023-10-08T13:10:39;1.20;;;0.60;;
19727;SDS011;10015;52.530;13.390;2023-10-08T13:13:10;3.08;;;1.20;;
19727;SDS011;10015;52.530;13.390;2023-10-08T13:15:37;2.08;;;1.00;;
19727;SDS011;10015;52.530;13.390;2023-10-08T13:18:03;3.50;;;1.40;;
19727;SDS011;10015;52.530;13.390;2023-10-08T13:20:29;2.47;;;1.10;;
19727;SDS011;10015;52.530;13.390;2023-10-08T13:23:02;1.88;;;1.10;;
19727;SDS011;10015;52.530;13.390;2023-10-08T13:25:32;3.55;;;0.90;;
19727;SDS011;10015;52.530;13.390;2023-10-08T13:28:01;3.67;;;1.35;;
19727;SDS011;10015;52.530;13.390;2023-10-08T13:30:27;1.40;;;0.82;;
19727;SDS011;10015;52.530;13.390;2023-10-08T13:32:53;1.83;;;1.00;;
19727;SDS011;10015;52.530;13.390;2023-10-08T13:35:19;1.75;;;1.00;;
19727;SDS011;10015;52.530;13.390;2023-10-08T13:37:45;1.50;;;0.82;;
19727;SDS011;10015;52.530;13.390;2023-10-08T13:40:13;2.78;;;1.00;;
19727;SDS011;10015;52.530;13.390;2023-10-08T13:42:41;3.25;;;1.75;;
19727;SDS011;10015;52.530;13.390;2023-10-08T13:45:08;1.77;;;1.10;;
19727;SDS011;10015;52.530;13.390;2023-10-08T13:47:34;2.42;;;1.00;;
19727;SDS011;10015;52.530;13.390;2023-10-08T13:50:00;4.00;;;1.00;;
19727;SDS011;10015;52.530;13.390;2023-10-08T13:52:36;2.30;;;0.95;;
19727;SDS011;10015;52.530;13.390;2023-10-08T13:55:05;1.00;;;0.65;;
19727;SDS011;10015;52.530;13.390;2023-10-08T13:57:32;2.15;;;0.80;;
19727;SDS011;10015;52.530;13.390;2023-10-08T14:00:00;1.27;;;0.75;;
19727;SDS011;10015;52.530;13.390;2023-10-08T14:02:29;2.55;;;0.80;;
19727;SDS011;10015;52.530;13.390;2023-10-08T14:04:55;2.53;;;0.77;;
19727;SDS011;10015;52.530;13.390;2023-10-08T14:07:23;1.60;;;0.70;;
19727;SDS011;10015;52.530;13.390;2023-10-08T14:09:50;5.03;;;1.05;;
19727;SDS011;10015;52.530;13.390;2023-10-08T14:12:16;2.80;;;0.70;;
19727;SDS011;10015;52.530;13.390;2023-10-08T14:14:42;0.77;;;0.60;;
19727;SDS011;10015;52.530;13.390;2023-10-08T14:17:12;1.90;;;0.80;;
19727;SDS011;10015;52.530;13.390;2023-10-08T14:19:41;1.05;;;0.60;;
19727;SDS011;10015;52.530;13.390;2023-10-08T14:22:14;1.90;;;0.80;;
19727;SDS011;10015;52.530;13.390;2023-10-08T14:24:42;4.43;;;2.85;;
19727;SDS011;10015;52.530;13.390;2023-10-08T14:27:10;5.20;;;1.20;;
19727;SDS011;10015;52.530;13.390;2023-10-08T14:29:40;2.63;;;1.10;;
19727;SDS011;10015;52.530;13.390;2023-10-08T14:32:09;11.70;;;6.07;;
19727;SDS011;10015;52.530;13.390;2023-10-08T14:34:36;5.00;;;2.20;;
19727;SDS011;10015;52.530;13.390;2023-10-08T14:37:09;3.80;;;2.00;;
19727;SDS011;10015;52.530;13.390;2023-10-08T14:39:54;3.60;;;1.87;;
19727;SDS011;10015;52.530;13.390;2023-10-08T14:42:38;3.27;;;1.60;;
19727;SDS011;10015;52.530;13.390;2023-10-08T14:45:25;2.57;;;1.40;;
19727;SDS011;10015;52.530;13.390;2023-10-08T14:47:55;3.63;;;1.43;;
19727;SDS011;10015;52.530;13.390;2023-10-08T14:50:22;3.17;;;1.20;;
19727;SDS011;10015;52.530;13.390;2023-10-08T14:52:53;3.40;;;1.30;;
19727;SDS011;10015;52.530;13.390;2023-10-08T14:55:20;1.38;;;1.00;;
19727;SDS011;10015;52.530;13.390;2023-10-08T14:57:48;1.70;;;1.13;;
19727;SDS011;10015;52.530;13.390;2023-10-08T15:00:18;1.40;;;0.83;;
19727;SDS011;10015;52.530;13.390;2023-10-08T15:02:52;2.00;;;0.90;;
19727;SDS011;10015;52.530;13.390;2023-10-08T15:05:22;1.63;;;0.90;;
19727;SDS011;10015;52.530;13.390;2023-10-08T15:07:49;1.70;;;1.37;;
19727;SDS011;10015;52.530;13.390;2023-10-08T15:10:16;1.17;;;0.93;;
19727;SDS011;10015;52.530;13.390;2023-10-08T15:12:43;1.40;;;0.83;;